sensor_id;sensor_type;location;lat;lon;timestamp;pressure;altitude;pressure_sealevel;temperature;humidity
76808;BME280;65758;45.458;11.062;2022-12-29T00:00:14;101769.68;;;9.24;70.77
76808;BME280;65758;45.458;11.062;2022-12-29T00:02:41;101765.83;;;9.26;70.79
76808;BME280;65758;45.458;11.062;2022-12-29T00:05:08;101767.08;;;9.24;70.70
76808;BME280;65758;45.458;11.062;2022-12-29T00:07:35;101764.31;;;9.22;70.75
76808;BME280;65758;45.458;11.062;2022-12-29T00:10:02;101764.83;;;9.19;70.67
76808;BME280;65758;45.458;11.062;2022-12-29T00:12:29;101761.02;;;9.16;70.64
76808;BME280;65758;45.458;11.062;2022-12-29T00:15:15;101755.05;;;9.13;70.77
76808;BME280;65758;45.458;11.062;2022-12-29T00:18:01;101748.66;;;9.09;70.84
76808;BME280;65758;45.458;11.062;2022-12-29T00:20:28;101736.84;;;9.08;70.79
76808;BME280;65758;45.458;11.062;2022-12-29T00:23:13;101727.21;;;9.10;70.93
76808;BME280;65758;45.458;11.062;2022-12-29T00:26:03;101721.61;;;9.10;71.11
76808;BME280;65758;45.458;11.062;2022-12-29T00:28:50;101724.33;;;9.08;71.02
76808;BME280;65758;45.458;11.062;2022-12-29T00:31:49;101730.05;;;9.08;70.95
76808;BME280;65758;45.458;11.062;2022-12-29T00:34:34;101729.98;;;9.07;70.94
76808;BME280;65758;45.458;11.062;2022-12-29T00:37:20;101731.57;;;9.06;70.86
76808;BME280;65758;45.458;11.062;2022-12-29T00:40:07;101731.70;;;9.06;70.79
76808;BME280;65758;45.458;11.062;2022-12-29T00:42:53;101732.48;;;9.06;70.80
76808;BME280;65758;45.458;11.062;2022-12-29T00:45:41;101727.87;;;9.05;70.92
76808;BME280;65758;45.458;11.062;2022-12-29T00:48:08;101731.59;;;9.03;70.80
76808;BME280;65758;45.458;11.062;2022-12-29T00:50:35;101727.47;;;9.03;70.86
76808;BME280;65758;45.458;11.062;2022-12-29T00:53:01;101727.52;;;9.03;71.07
76808;BME280;65758;45.458;11.062;2022-12-29T00:55:28;101735.17;;;9.02;71.14
76808;BME280;65758;45.458;11.062;2022-12-29T00:57:55;101736.99;;;8.99;71.30
76808;BME280;65758;45.458;11.062;2022-12-29T01:00:21;101734.30;;;8.94;71.43
76808;BME280;65758;45.458;11.062;2022-12-29T01:02:48;101736.09;;;8.90;71.42
76808;BME280;65758;45.458;11.062;2022-12-29T01:05:16;101740.33;;;8.87;71.53
76808;BME280;65758;45.458;11.062;2022-12-29T01:07:44;101744.34;;;8.86;71.41
76808;BME280;65758;45.458;11.062;2022-12-29T01:10:11;101747.13;;;8.84;71.56
76808;BME280;65758;45.458;11.062;2022-12-29T01:12:37;101748.63;;;8.82;71.68
76808;BME280;65758;45.458;11.062;2022-12-29T01:15:11;101747.55;;;8.80;71.67
76808;BME280;65758;45.458;11.062;2022-12-29T01:17:38;101754.61;;;8.83;71.54
76808;BME280;65758;45.458;11.062;2022-12-29T01:20:05;101756.63;;;8.88;71.62
76808;BME280;65758;45.458;11.062;2022-12-29T01:22:34;101757.60;;;8.91;71.71
76808;BME280;65758;45.458;11.062;2022-12-29T01:25:00;101756.16;;;8.94;71.65
76808;BME280;65758;45.458;11.062;2022-12-29T01:27:27;101750.29;;;8.94;71.75
76808;BME280;65758;45.458;11.062;2022-12-29T01:29:54;101750.02;;;8.95;71.87
76808;BME280;65758;45.458;11.062;2022-12-29T01:32:20;101749.95;;;8.94;71.62
76808;BME280;65758;45.458;11.062;2022-12-29T01:34:47;101748.44;;;8.93;71.85
76808;BME280;65758;45.458;11.062;2022-12-29T01:37:14;101747.64;;;8.92;71.89
76808;BME280;65758;45.458;11.062;2022-12-29T01:39:41;101749.96;;;8.91;71.60
76808;BME280;65758;45.458;11.062;2022-12-29T01:42:19;101750.06;;;8.89;71.69
76808;BME280;65758;45.458;11.062;2022-12-29T01:49:56;101759.11;;;8.91;71.93
76808;BME280;65758;45.458;11.062;2022-12-29T01:52:26;101760.29;;;8.95;71.98
76808;BME280;65758;45.458;11.062;2022-12-29T01:54:55;101762.80;;;8.96;72.00
76808;BME280;65758;45.458;11.062;2022-12-29T01:57:28;101761.19;;;8.99;71.91
76808;BME280;65758;45.458;11.062;2022-12-29T02:00:01;101754.67;;;8.98;71.87
76808;BME280;65758;45.458;11.062;2022-12-29T02:02:39;101760.32;;;8.97;71.79
76808;BME280;65758;45.458;11.062;2022-12-29T02:05:17;101766.09;;;8.95;71.74
76808;BME280;65758;45.458;11.062;2022-12-29T02:07:46;101767.41;;;8.93;71.88
76808;BME280;65758;45.458;11.062;2022-12-29T02:10:13;101755.98;;;8.93;72.21
76808;BME280;65758;45.458;11.062;2022-12-29T02:12:41;101742.48;;;8.93;72.07
76808;BME280;65758;45.458;11.062;2022-12-29T02:15:08;101731.48;;;8.95;72.20
76808;BME280;65758;45.458;11.062;2022-12-29T02:18:04;101728.66;;;8.97;72.25
76808;BME280;65758;45.458;11.062;2022-12-29T02:24:05;101723.60;;;9.03;72.17
76808;BME280;65758;45.458;11.062;2022-12-29T02:26:56;101722.23;;;9.03;72.29
76808;BME280;65758;45.458;11.062;2022-12-29T02:32:31;101724.84;;;9.00;72.10
76808;BME280;65758;45.458;11.062;2022-12-29T02:40:25;101711.02;;;9.04;72.37
76808;BME280;65758;45.458;11.062;2022-12-29T02:45:43;101698.59;;;9.09;72.26
76808;BME280;65758;45.458;11.062;2022-12-29T02:48:23;101700.40;;;9.09;72.43
76808;BME280;65758;45.458;11.062;2022-12-29T02:51:15;101701.03;;;9.09;72.26
76808;BME280;65758;45.458;11.062;2022-12-29T02:53:45;101707.85;;;9.10;72.12
76808;BME280;65758;45.458;11.062;2022-12-29T02:56:31;101710.73;;;9.09;72.07
76808;BME280;65758;45.458;11.062;2022-12-29T02:58:58;101704.09;;;9.08;72.05
76808;BME280;65758;45.458;11.062;2022-12-29T03:04:22;101694.96;;;9.10;72.36
76808;BME280;65758;45.458;11.062;2022-12-29T03:07:09;101697.46;;;9.13;72.44
76808;BME280;65758;45.458;11.062;2022-12-29T03:09:52;101697.90;;;9.14;72.50
76808;BME280;65758;45.458;11.062;2022-12-29T03:15:33;101693.45;;;9.10;72.55
76808;BME280;65758;45.458;11.062;2022-12-29T03:18:23;101688.75;;;9.07;72.80
76808;BME280;65758;45.458;11.062;2022-12-29T03:20:57;101687.73;;;9.03;72.76
76808;BME280;65758;45.458;11.062;2022-12-29T03:23:28;101687.55;;;9.00;72.89
76808;BME280;65758;45.458;11.062;2022-12-29T03:25:58;101684.53;;;9.02;72.83
76808;BME280;65758;45.458;11.062;2022-12-29T03:28:32;101684.77;;;9.06;72.95
76808;BME280;65758;45.458;11.062;2022-12-29T03:31:03;101695.40;;;9.07;72.97
76808;BME280;65758;45.458;11.062;2022-12-29T03:33:31;101703.05;;;9.10;73.20
76808;BME280;65758;45.458;11.062;2022-12-29T03:36:03;101703.77;;;9.10;73.24
76808;BME280;65758;45.458;11.062;2022-12-29T03:38:43;101692.45;;;9.08;73.13
76808;BME280;65758;45.458;11.062;2022-12-29T03:41:15;101679.34;;;9.07;73.37
76808;BME280;65758;45.458;11.062;2022-12-29T03:43:45;101672.26;;;9.05;73.34
76808;BME280;65758;45.458;11.062;2022-12-29T03:46:11;101671.13;;;9.06;73.47
76808;BME280;65758;45.458;11.062;2022-12-29T03:48:40;101667.19;;;9.10;73.61
76808;BME280;65758;45.458;11.062;2022-12-29T03:51:07;101671.59;;;9.14;73.59
76808;BME280;65758;45.458;11.062;2022-12-29T03:53:34;101666.36;;;9.15;73.66
76808;BME280;65758;45.458;11.062;2022-12-29T03:56:02;101664.52;;;9.15;73.67
76808;BME280;65758;45.458;11.062;2022-12-29T03:58:29;101668.23;;;9.14;73.65
76808;BME280;65758;45.458;11.062;2022-12-29T04:01:12;101666.82;;;9.11;73.63
76808;BME280;65758;45.458;11.062;2022-12-29T04:03:40;101663.89;;;9.08;73.68
76808;BME280;65758;45.458;11.062;2022-12-29T04:06:06;101665.89;;;9.07;73.80
76808;BME280;65758;45.458;11.062;2022-12-29T04:08:46;101665.83;;;9.09;73.73
76808;BME280;65758;45.458;11.062;2022-12-29T04:11:13;101673.34;;;9.12;73.69
76808;BME280;65758;45.458;11.062;2022-12-29T04:13:41;101672.20;;;9.13;73.77
76808;BME280;65758;45.458;11.062;2022-12-29T04:16:09;101678.08;;;9.12;73.85
76808;BME280;65758;45.458;11.062;2022-12-29T04:18:36;101681.67;;;9.12;73.80
76808;BME280;65758;45.458;11.062;2022-12-29T04:21:03;101682.64;;;9.10;73.76
76808;BME280;65758;45.458;11.062;2022-12-29T04:23:35;101681.48;;;9.07;73.82
76808;BME280;65758;45.458;11.062;2022-12-29T04:26:06;101681.67;;;9.06;74.12
76808;BME280;65758;45.458;11.062;2022-12-29T04:28:38;101680.02;;;9.03;73.91
76808;BME280;65758;45.458;11.062;2022-12-29T04:31:32;101684.53;;;9.02;74.12
76808;BME280;65758;45.458;11.062;2022-12-29T04:34:00;101682.52;;;9.06;74.22
76808;BME280;65758;45.458;11.062;2022-12-29T04:36:27;101681.74;;;9.12;74.11
76808;BME280;65758;45.458;11.062;2022-12-29T04:38:56;101679.73;;;9.17;74.12
76808;BME280;65758;45.458;11.062;2022-12-29T04:41:24;101692.57;;;9.19;74.09
76808;BME280;65758;45.458;11.062;2022-12-29T04:43:52;101690.46;;;9.18;74.01
76808;BME280;65758;45.458;11.062;2022-12-29T04:46:21;101678.16;;;9.16;73.98
76808;BME280;65758;45.458;11.062;2022-12-29T04:48:53;101661.80;;;9.12;73.98
76808;BME280;65758;45.458;11.062;2022-12-29T04:51:39;101663.06;;;9.08;74.21
76808;BME280;65758;45.458;11.062;2022-12-29T04:54:08;101673.31;;;9.10;74.19
76808;BME280;65758;45.458;11.062;2022-12-29T04:56:35;101670.47;;;9.15;74.04
76808;BME280;65758;45.458;11.062;2022-12-29T04:59:02;101672.63;;;9.20;73.98
76808;BME280;65758;45.458;11.062;2022-12-29T05:01:29;101679.56;;;9.21;74.07
76808;BME280;65758;45.458;11.062;2022-12-29T05:03:56;101678.77;;;9.22;74.05
76808;BME280;65758;45.458;11.062;2022-12-29T05:06:24;101675.77;;;9.21;74.19
76808;BME280;65758;45.458;11.062;2022-12-29T05:08:51;101677.41;;;9.21;74.06
76808;BME280;65758;45.458;11.062;2022-12-29T05:11:20;101689.40;;;9.18;74.11
76808;BME280;65758;45.458;11.062;2022-12-29T05:13:48;101699.33;;;9.15;74.08
76808;BME280;65758;45.458;11.062;2022-12-29T05:16:16;101697.02;;;9.14;74.01
76808;BME280;65758;45.458;11.062;2022-12-29T05:18:44;101681.70;;;9.17;74.09
76808;BME280;65758;45.458;11.062;2022-12-29T05:21:11;101666.23;;;9.19;74.30
76808;BME280;65758;45.458;11.062;2022-12-29T05:23:39;101670.17;;;9.14;74.22
76808;BME280;65758;45.458;11.062;2022-12-29T05:26:06;101678.19;;;9.09;74.41
76808;BME280;65758;45.458;11.062;2022-12-29T05:28:54;101679.73;;;9.08;74.51
76808;BME280;65758;45.458;11.062;2022-12-29T05:31:21;101686.98;;;9.08;74.57
76808;BME280;65758;45.458;11.062;2022-12-29T05:33:48;101696.15;;;9.08;74.50
76808;BME280;65758;45.458;11.062;2022-12-29T05:36:16;101696.97;;;9.10;74.54
76808;BME280;65758;45.458;11.062;2022-12-29T05:38:48;101693.23;;;9.15;74.55
76808;BME280;65758;45.458;11.062;2022-12-29T05:41:16;101693.62;;;9.19;74.69
76808;BME280;65758;45.458;11.062;2022-12-29T05:43:49;101701.94;;;9.23;74.50
76808;BME280;65758;45.458;11.062;2022-12-29T05:46:28;101699.72;;;9.24;74.63
76808;BME280;65758;45.458;11.062;2022-12-29T05:49:07;101697.54;;;9.24;74.37
76808;BME280;65758;45.458;11.062;2022-12-29T05:52:07;101694.63;;;9.24;74.41
76808;BME280;65758;45.458;11.062;2022-12-29T05:54:34;101689.13;;;9.23;74.64
76808;BME280;65758;45.458;11.062;2022-12-29T05:57:02;101686.23;;;9.24;74.70
76808;BME280;65758;45.458;11.062;2022-12-29T05:59:30;101686.20;;;9.29;74.74
76808;BME280;65758;45.458;11.062;2022-12-29T06:01:57;101691.77;;;9.32;74.71
76808;BME280;65758;45.458;11.062;2022-12-29T06:04:24;101692.55;;;9.35;74.78
76808;BME280;65758;45.458;11.062;2022-12-29T06:06:51;101682.19;;;9.36;74.60
76808;BME280;65758;45.458;11.062;2022-12-29T06:09:23;101687.73;;;9.35;74.66
76808;BME280;65758;45.458;11.062;2022-12-29T06:11:52;101685.95;;;9.33;74.59
76808;BME280;65758;45.458;11.062;2022-12-29T06:14:19;101682.19;;;9.30;74.62
76808;BME280;65758;45.458;11.062;2022-12-29T06:16:46;101682.05;;;9.30;74.75
76808;BME280;65758;45.458;11.062;2022-12-29T06:19:13;101685.07;;;9.34;74.79
76808;BME280;65758;45.458;11.062;2022-12-29T06:21:40;101686.63;;;9.35;74.71
76808;BME280;65758;45.458;11.062;2022-12-29T06:24:08;101683.06;;;9.36;74.70
76808;BME280;65758;45.458;11.062;2022-12-29T06:26:36;101683.41;;;9.36;74.93
76808;BME280;65758;45.458;11.062;2022-12-29T06:29:03;101682.14;;;9.36;74.59
76808;BME280;65758;45.458;11.062;2022-12-29T06:31:31;101683.65;;;9.34;74.68
76808;BME280;65758;45.458;11.062;2022-12-29T06:33:59;101686.89;;;9.31;74.52
76808;BME280;65758;45.458;11.062;2022-12-29T06:36:33;101677.04;;;9.25;74.80
76808;BME280;65758;45.458;11.062;2022-12-29T06:39:00;101667.25;;;9.25;74.92
76808;BME280;65758;45.458;11.062;2022-12-29T06:41:27;101665.84;;;9.26;75.01
76808;BME280;65758;45.458;11.062;2022-12-29T06:44:10;101666.55;;;9.26;75.00
76808;BME280;65758;45.458;11.062;2022-12-29T06:46:52;101675.15;;;9.25;74.81
76808;BME280;65758;45.458;11.062;2022-12-29T06:49:18;101675.67;;;9.24;74.65
76808;BME280;65758;45.458;11.062;2022-12-29T06:51:46;101674.67;;;9.22;74.83
76808;BME280;65758;45.458;11.062;2022-12-29T06:54:13;101682.02;;;9.19;74.66
76808;BME280;65758;45.458;11.062;2022-12-29T06:56:40;101685.37;;;9.17;74.89
76808;BME280;65758;45.458;11.062;2022-12-29T06:59:06;101683.29;;;9.15;74.74
76808;BME280;65758;45.458;11.062;2022-12-29T07:01:33;101685.58;;;9.14;74.93
76808;BME280;65758;45.458;11.062;2022-12-29T07:04:02;101686.29;;;9.12;75.03
76808;BME280;65758;45.458;11.062;2022-12-29T07:06:29;101696.07;;;9.11;75.08
76808;BME280;65758;45.458;11.062;2022-12-29T07:08:56;101701.06;;;9.11;75.00
76808;BME280;65758;45.458;11.062;2022-12-29T07:11:24;101696.91;;;9.09;75.13
76808;BME280;65758;45.458;11.062;2022-12-29T07:13:50;101697.08;;;9.08;74.98
76808;BME280;65758;45.458;11.062;2022-12-29T07:16:17;101700.56;;;9.08;74.96
76808;BME280;65758;45.458;11.062;2022-12-29T07:18:44;101706.00;;;9.11;75.19
76808;BME280;65758;45.458;11.062;2022-12-29T07:21:11;101701.14;;;9.16;75.23
76808;BME280;65758;45.458;11.062;2022-12-29T07:23:38;101705.45;;;9.22;75.20
76808;BME280;65758;45.458;11.062;2022-12-29T07:26:06;101704.55;;;9.24;75.05
76808;BME280;65758;45.458;11.062;2022-12-29T07:28:34;101708.91;;;9.26;75.06
76808;BME280;65758;45.458;11.062;2022-12-29T07:31:02;101712.67;;;9.25;74.99
76808;BME280;65758;45.458;11.062;2022-12-29T07:33:29;101706.06;;;9.25;75.01
76808;BME280;65758;45.458;11.062;2022-12-29T07:35:56;101710.85;;;9.23;75.05
76808;BME280;65758;45.458;11.062;2022-12-29T07:38:23;101708.05;;;9.20;75.04
76808;BME280;65758;45.458;11.062;2022-12-29T07:40:50;101714.34;;;9.20;75.11
76808;BME280;65758;45.458;11.062;2022-12-29T07:43:16;101711.44;;;9.23;75.18
76808;BME280;65758;45.458;11.062;2022-12-29T07:46:19;101716.06;;;9.25;75.10
76808;BME280;65758;45.458;11.062;2022-12-29T07:49:06;101713.31;;;9.22;75.15
76808;BME280;65758;45.458;11.062;2022-12-29T07:51:33;101713.63;;;9.20;75.38
76808;BME280;65758;45.458;11.062;2022-12-29T07:53:59;101707.63;;;9.17;75.30
76808;BME280;65758;45.458;11.062;2022-12-29T07:56:27;101700.27;;;9.13;75.42
76808;BME280;65758;45.458;11.062;2022-12-29T07:58:54;101696.77;;;9.07;75.38
76808;BME280;65758;45.458;11.062;2022-12-29T08:01:20;101700.90;;;9.08;75.37
76808;BME280;65758;45.458;11.062;2022-12-29T08:03:50;101708.16;;;9.12;75.47
76808;BME280;65758;45.458;11.062;2022-12-29T08:06:23;101716.34;;;9.18;75.87
76808;BME280;65758;45.458;11.062;2022-12-29T08:08:49;101720.09;;;9.23;75.70
76808;BME280;65758;45.458;11.062;2022-12-29T08:11:16;101728.55;;;9.27;75.67
76808;BME280;65758;45.458;11.062;2022-12-29T08:13:43;101738.77;;;9.29;75.62
76808;BME280;65758;45.458;11.062;2022-12-29T08:16:09;101744.26;;;9.32;75.69
76808;BME280;65758;45.458;11.062;2022-12-29T08:18:36;101740.17;;;9.35;75.41
76808;BME280;65758;45.458;11.062;2022-12-29T08:21:04;101744.61;;;9.37;75.42
76808;BME280;65758;45.458;11.062;2022-12-29T08:23:31;101741.38;;;9.41;75.28
76808;BME280;65758;45.458;11.062;2022-12-29T08:25:59;101738.07;;;9.47;75.31
76808;BME280;65758;45.458;11.062;2022-12-29T08:28:27;101745.55;;;9.51;75.18
76808;BME280;65758;45.458;11.062;2022-12-29T08:30:57;101739.83;;;9.55;75.22
76808;BME280;65758;45.458;11.062;2022-12-29T08:33:25;101746.00;;;9.49;75.08
76808;BME280;65758;45.458;11.062;2022-12-29T08:35:52;101757.91;;;9.43;75.14
76808;BME280;65758;45.458;11.062;2022-12-29T08:38:19;101759.95;;;9.41;75.33
76808;BME280;65758;45.458;11.062;2022-12-29T08:40:45;101761.27;;;9.41;75.43
76808;BME280;65758;45.458;11.062;2022-12-29T08:43:12;101765.78;;;9.44;75.28
76808;BME280;65758;45.458;11.062;2022-12-29T08:45:44;101758.15;;;9.51;75.46
76808;BME280;65758;45.458;11.062;2022-12-29T08:48:10;101759.05;;;9.57;75.50
76808;BME280;65758;45.458;11.062;2022-12-29T08:50:38;101766.83;;;9.60;75.31
76808;BME280;65758;45.458;11.062;2022-12-29T08:53:04;101769.02;;;9.63;75.20
76808;BME280;65758;45.458;11.062;2022-12-29T08:55:31;101775.02;;;9.65;75.12
76808;BME280;65758;45.458;11.062;2022-12-29T08:57:58;101771.23;;;9.65;74.94
76808;BME280;65758;45.458;11.062;2022-12-29T09:00:25;101778.61;;;9.64;75.04
76808;BME280;65758;45.458;11.062;2022-12-29T09:02:52;101778.48;;;9.62;74.92
76808;BME280;65758;45.458;11.062;2022-12-29T09:05:19;101780.30;;;9.63;74.94
76808;BME280;65758;45.458;11.062;2022-12-29T09:07:46;101778.16;;;9.69;75.11
76808;BME280;65758;45.458;11.062;2022-12-29T09:10:13;101783.64;;;9.74;75.02
76808;BME280;65758;45.458;11.062;2022-12-29T09:12:40;101778.20;;;9.77;74.82
76808;BME280;65758;45.458;11.062;2022-12-29T09:15:08;101776.06;;;9.78;74.73
76808;BME280;65758;45.458;11.062;2022-12-29T09:17:35;101773.26;;;9.78;74.54
76808;BME280;65758;45.458;11.062;2022-12-29T09:20:10;101765.94;;;9.79;74.62
76808;BME280;65758;45.458;11.062;2022-12-29T09:22:37;101755.84;;;9.78;74.66
76808;BME280;65758;45.458;11.062;2022-12-29T09:25:05;101754.16;;;9.77;74.81
76808;BME280;65758;45.458;11.062;2022-12-29T09:27:32;101759.05;;;9.78;74.85
76808;BME280;65758;45.458;11.062;2022-12-29T09:29:59;101761.45;;;9.82;75.12
76808;BME280;65758;45.458;11.062;2022-12-29T09:32:25;101765.93;;;9.86;75.06
76808;BME280;65758;45.458;11.062;2022-12-29T09:34:59;101763.33;;;9.88;75.18
76808;BME280;65758;45.458;11.062;2022-12-29T09:37:26;101768.73;;;9.88;75.13
76808;BME280;65758;45.458;11.062;2022-12-29T09:39:53;101763.58;;;9.87;75.04
76808;BME280;65758;45.458;11.062;2022-12-29T09:42:32;101765.67;;;9.86;74.98
76808;BME280;65758;45.458;11.062;2022-12-29T09:45:18;101761.06;;;9.88;75.10
76808;BME280;65758;45.458;11.062;2022-12-29T09:47:52;101754.71;;;9.93;74.78
76808;BME280;65758;45.458;11.062;2022-12-29T09:52:58;101744.04;;;10.04;74.71
76808;BME280;65758;45.458;11.062;2022-12-29T09:55:50;101749.96;;;10.09;74.72
76808;BME280;65758;45.458;11.062;2022-12-29T09:58:26;101760.63;;;10.11;74.57
76808;BME280;65758;45.458;11.062;2022-12-29T10:01:13;101760.73;;;10.09;74.69
76808;BME280;65758;45.458;11.062;2022-12-29T10:03:52;101760.78;;;10.04;74.69
76808;BME280;65758;45.458;11.062;2022-12-29T10:06:38;101768.05;;;9.99;74.82
76808;BME280;65758;45.458;11.062;2022-12-29T10:24:11;101735.17;;;10.25;74.27
76808;BME280;65758;45.458;11.062;2022-12-29T10:26:43;101731.48;;;10.32;74.12
76808;BME280;65758;45.458;11.062;2022-12-29T10:29:20;101731.36;;;10.41;73.88
76808;BME280;65758;45.458;11.062;2022-12-29T10:32:00;101736.88;;;10.49;73.80
76808;BME280;65758;45.458;11.062;2022-12-29T10:34:38;101726.86;;;10.55;73.57
76808;BME280;65758;45.458;11.062;2022-12-29T10:37:28;101716.65;;;10.71;73.27
76808;BME280;65758;45.458;11.062;2022-12-29T10:40:09;101711.93;;;10.89;73.33
76808;BME280;65758;45.458;11.062;2022-12-29T10:42:46;101714.36;;;10.98;73.07
76808;BME280;65758;45.458;11.062;2022-12-29T10:45:16;101708.27;;;11.02;72.88
76808;BME280;65758;45.458;11.062;2022-12-29T10:50:18;101692.61;;;11.12;72.94
76808;BME280;65758;45.458;11.062;2022-12-29T10:52:46;101694.95;;;11.15;72.67
76808;BME280;65758;45.458;11.062;2022-12-29T10:55:19;101692.14;;;11.18;72.17
76808;BME280;65758;45.458;11.062;2022-12-29T10:57:48;101687.16;;;11.21;72.08
76808;BME280;65758;45.458;11.062;2022-12-29T11:00:21;101687.67;;;11.23;72.55
76808;BME280;65758;45.458;11.062;2022-12-29T11:03:17;101690.33;;;11.23;72.24
76808;BME280;65758;45.458;11.062;2022-12-29T11:06:01;101693.54;;;11.22;72.27
76808;BME280;65758;45.458;11.062;2022-12-29T11:08:37;101688.30;;;11.26;72.22
76808;BME280;65758;45.458;11.062;2022-12-29T11:11:07;101684.77;;;11.33;72.13
76808;BME280;65758;45.458;11.062;2022-12-29T11:13:47;101681.91;;;11.37;72.05
76808;BME280;65758;45.458;11.062;2022-12-29T11:16:14;101686.80;;;11.39;72.00
76808;BME280;65758;45.458;11.062;2022-12-29T11:18:53;101689.42;;;11.43;71.98
76808;BME280;65758;45.458;11.062;2022-12-29T11:21:40;101680.50;;;11.45;72.16
76808;BME280;65758;45.458;11.062;2022-12-29T11:24:20;101665.95;;;11.47;72.18
76808;BME280;65758;45.458;11.062;2022-12-29T11:26:49;101648.91;;;11.48;71.29
76808;BME280;65758;45.458;11.062;2022-12-29T11:29:21;101656.02;;;11.46;71.43
76808;BME280;65758;45.458;11.062;2022-12-29T11:31:49;101658.70;;;11.48;71.99
76808;BME280;65758;45.458;11.062;2022-12-29T11:34:31;101662.79;;;11.48;71.58
76808;BME280;65758;45.458;11.062;2022-12-29T11:37:11;101667.09;;;11.48;71.72
76808;BME280;65758;45.458;11.062;2022-12-29T11:42:19;101672.98;;;11.47;71.88
76808;BME280;65758;45.458;11.062;2022-12-29T11:44:49;101667.80;;;11.44;71.61
76808;BME280;65758;45.458;11.062;2022-12-29T11:47:23;101667.80;;;11.42;71.74
76808;BME280;65758;45.458;11.062;2022-12-29T11:49:55;101666.65;;;11.37;71.64
76808;BME280;65758;45.458;11.062;2022-12-29T11:52:25;101660.67;;;11.33;72.16
76808;BME280;65758;45.458;11.062;2022-12-29T11:54:54;101654.64;;;11.29;72.08
76808;BME280;65758;45.458;11.062;2022-12-29T11:57:23;101651.56;;;11.26;72.06
76808;BME280;65758;45.458;11.062;2022-12-29T11:59:53;101653.06;;;11.24;71.97
76808;BME280;65758;45.458;11.062;2022-12-29T12:02:32;101662.98;;;11.23;72.18
76808;BME280;65758;45.458;11.062;2022-12-29T12:07:46;101671.36;;;11.22;72.57
76808;BME280;65758;45.458;11.062;2022-12-29T12:10:17;101670.84;;;11.19;72.57
76808;BME280;65758;45.458;11.062;2022-12-29T12:12:59;101665.23;;;11.14;72.36
76808;BME280;65758;45.458;11.062;2022-12-29T12:15:38;101659.36;;;11.08;72.23
76808;BME280;65758;45.458;11.062;2022-12-29T12:21:50;101651.77;;;10.92;72.72
76808;BME280;65758;45.458;11.062;2022-12-29T12:27:21;101622.73;;;10.85;72.65
76808;BME280;65758;45.458;11.062;2022-12-29T12:29:58;101604.45;;;10.86;72.69
76808;BME280;65758;45.458;11.062;2022-12-29T12:35:04;101599.20;;;10.90;72.99
76808;BME280;65758;45.458;11.062;2022-12-29T12:42:47;101609.42;;;10.86;73.83
76808;BME280;65758;45.458;11.062;2022-12-29T12:45:34;101618.44;;;10.85;73.67
76808;BME280;65758;45.458;11.062;2022-12-29T13:07:44;101615.05;;;10.98;73.45
76808;BME280;65758;45.458;11.062;2022-12-29T13:10:29;101612.94;;;10.93;73.14
76808;BME280;65758;45.458;11.062;2022-12-29T13:15:47;101617.19;;;10.90;73.06
76808;BME280;65758;45.458;11.062;2022-12-29T13:26:20;101652.66;;;10.90;73.32
76808;BME280;65758;45.458;11.062;2022-12-29T13:29:15;101654.59;;;10.88;73.39
76808;BME280;65758;45.458;11.062;2022-12-29T13:34:32;101622.39;;;10.85;73.48
76808;BME280;65758;45.458;11.062;2022-12-29T13:37:09;101617.14;;;10.84;73.70
76808;BME280;65758;45.458;11.062;2022-12-29T13:39:42;101611.13;;;10.88;73.35
76808;BME280;65758;45.458;11.062;2022-12-29T13:42:11;101612.48;;;10.91;73.61
76808;BME280;65758;45.458;11.062;2022-12-29T13:45:01;101614.73;;;10.95;73.77
76808;BME280;65758;45.458;11.062;2022-12-29T13:47:46;101617.21;;;10.98;73.89
76808;BME280;65758;45.458;11.062;2022-12-29T13:50:21;101613.71;;;11.01;73.85
76808;BME280;65758;45.458;11.062;2022-12-29T13:58:24;101604.10;;;10.98;73.34
76808;BME280;65758;45.458;11.062;2022-12-29T14:01:15;101600.60;;;10.96;73.93
76808;BME280;65758;45.458;11.062;2022-12-29T14:06:24;101589.65;;;10.93;73.65
76808;BME280;65758;45.458;11.062;2022-12-29T14:09:04;101586.19;;;10.87;73.68
76808;BME280;65758;45.458;11.062;2022-12-29T14:11:32;101594.84;;;10.76;74.12
76808;BME280;65758;45.458;11.062;2022-12-29T14:14:21;101601.44;;;10.71;74.11
76808;BME280;65758;45.458;11.062;2022-12-29T14:16:49;101609.80;;;10.67;73.77
76808;BME280;65758;45.458;11.062;2022-12-29T14:19:21;101611.06;;;10.65;74.13
76808;BME280;65758;45.458;11.062;2022-12-29T14:22:02;101606.13;;;10.62;74.02
76808;BME280;65758;45.458;11.062;2022-12-29T14:24:38;101599.48;;;10.63;74.14
76808;BME280;65758;45.458;11.062;2022-12-29T14:29:43;101599.49;;;10.69;73.95
76808;BME280;65758;45.458;11.062;2022-12-29T14:34:48;101592.21;;;10.69;74.02
76808;BME280;65758;45.458;11.062;2022-12-29T14:37:29;101591.58;;;10.63;73.88
76808;BME280;65758;45.458;11.062;2022-12-29T14:42:46;101589.56;;;10.58;73.95
76808;BME280;65758;45.458;11.062;2022-12-29T14:47:42;101593.73;;;10.57;73.95
76808;BME280;65758;45.458;11.062;2022-12-29T14:55:38;101599.80;;;10.69;74.37
76808;BME280;65758;45.458;11.062;2022-12-29T14:58:32;101605.13;;;10.67;74.16
76808;BME280;65758;45.458;11.062;2022-12-29T15:01:18;101601.91;;;10.65;74.33
76808;BME280;65758;45.458;11.062;2022-12-29T15:03:49;101603.94;;;10.61;74.30
76808;BME280;65758;45.458;11.062;2022-12-29T15:06:19;101601.77;;;10.56;74.46
76808;BME280;65758;45.458;11.062;2022-12-29T15:09:10;101596.58;;;10.54;74.30
76808;BME280;65758;45.458;11.062;2022-12-29T15:11:47;101590.02;;;10.55;74.39
76808;BME280;65758;45.458;11.062;2022-12-29T15:14:32;101581.61;;;10.57;74.88
76808;BME280;65758;45.458;11.062;2022-12-29T15:16:59;101580.14;;;10.57;74.88